DKH1101 ZBAA-ZSQD
Flight info
| Callsign | DKH1101 |
|---|---|
| Flight time | 1h 5m |
| Altitude | 22600 |
| Route | IGMOR W36 LOTGO W575 GOTSU W201 HCH W651 NOKUD |
| Aircraft | A320/M-SDE3FGHIRWY/LB1 |
Departure
| Time | 2026-04-17 09:44 |
|---|---|
| Airport | Beijing Capital International Airport (ZBAA) |
Arrival
| Time | 2026-04-17 10:50 |
|---|---|
| Airport | Qingdao Jiaodong International Airport (ZSQD) |
| Time | Latitude | Longitude | Altitude | Speed | Heading |
|---|---|---|---|---|---|
| 2026-04-17 09:06 | 40.08166 | 116.58598 | 121 ft | 0 kts | 83° |
| 2026-04-17 09:31 | 40.08166 | 116.58593 | 125 ft | 2 kts | 83° |
| 2026-04-17 09:32 | 40.08163 | 116.58569 | 120 ft | 3 kts | 83° |
| 2026-04-17 09:32 | 40.08161 | 116.58543 | 121 ft | 3 kts | 71° |
| 2026-04-17 09:32 | 40.08152 | 116.58522 | 123 ft | 3 kts | 36° |
| 2026-04-17 09:32 | 40.08137 | 116.58513 | 120 ft | 2 kts | 357° |
| 2026-04-17 09:33 | 40.08133 | 116.58514 | 121 ft | 0 kts | 353° |
| 2026-04-17 09:35 | 40.08157 | 116.58510 | 122 ft | 10 kts | 353° |
| 2026-04-17 09:35 | 40.08233 | 116.58498 | 120 ft | 11 kts | 355° |
| 2026-04-17 09:35 | 40.08307 | 116.58506 | 122 ft | 10 kts | 3° |
| 2026-04-17 09:35 | 40.08374 | 116.58511 | 122 ft | 9 kts | 35° |
| 2026-04-17 09:36 | 40.08393 | 116.58587 | 125 ft | 9 kts | 84° |
| 2026-04-17 09:36 | 40.08399 | 116.58667 | 123 ft | 10 kts | 83° |
| 2026-04-17 09:36 | 40.08408 | 116.58756 | 125 ft | 10 kts | 83° |
| 2026-04-17 09:36 | 40.08419 | 116.58877 | 125 ft | 14 kts | 83° |
| 2026-04-17 09:37 | 40.08430 | 116.58998 | 123 ft | 13 kts | 83° |
| 2026-04-17 09:37 | 40.08440 | 116.59113 | 122 ft | 12 kts | 83° |
| 2026-04-17 09:37 | 40.08450 | 116.59219 | 123 ft | 12 kts | 84° |
| 2026-04-17 09:37 | 40.08403 | 116.59278 | 123 ft | 10 kts | 168° |
| 2026-04-17 09:38 | 40.08332 | 116.59288 | 123 ft | 11 kts | 173° |
| 2026-04-17 09:38 | 40.08249 | 116.59301 | 122 ft | 13 kts | 173° |
| 2026-04-17 09:38 | 40.08136 | 116.59319 | 120 ft | 19 kts | 173° |
| 2026-04-17 09:38 | 40.07998 | 116.59340 | 121 ft | 22 kts | 173° |
| 2026-04-17 09:39 | 40.07840 | 116.59365 | 123 ft | 24 kts | 173° |
| 2026-04-17 09:39 | 40.07665 | 116.59393 | 121 ft | 26 kts | 173° |
| 2026-04-17 09:39 | 40.07483 | 116.59421 | 121 ft | 27 kts | 173° |
| 2026-04-17 09:39 | 40.07347 | 116.59494 | 122 ft | 22 kts | 159° |
| 2026-04-17 09:40 | 40.07192 | 116.59524 | 121 ft | 24 kts | 174° |
| 2026-04-17 09:40 | 40.07022 | 116.59551 | 121 ft | 26 kts | 173° |
| 2026-04-17 09:40 | 40.06837 | 116.59580 | 122 ft | 28 kts | 173° |
| 2026-04-17 09:40 | 40.06660 | 116.59607 | 122 ft | 26 kts | 173° |
| 2026-04-17 09:41 | 40.06474 | 116.59636 | 124 ft | 24 kts | 173° |
| 2026-04-17 09:41 | 40.06301 | 116.59663 | 121 ft | 26 kts | 173° |
| 2026-04-17 09:41 | 40.06176 | 116.59683 | 122 ft | 18 kts | 173° |
| 2026-04-17 09:41 | 40.06042 | 116.59704 | 122 ft | 21 kts | 173° |
| 2026-04-17 09:42 | 40.05889 | 116.59727 | 124 ft | 23 kts | 173° |
| 2026-04-17 09:42 | 40.05778 | 116.59745 | 122 ft | 25 kts | 173° |
| 2026-04-17 09:42 | 40.05551 | 116.59780 | 121 ft | 24 kts | 174° |
| 2026-04-17 09:42 | 40.05482 | 116.59859 | 124 ft | 14 kts | 84° |
| 2026-04-17 09:43 | 40.05538 | 116.59955 | 122 ft | 13 kts | 40° |
| 2026-04-17 09:43 | 40.05612 | 116.60003 | 120 ft | 12 kts | 1° |
| 2026-04-17 09:43 | 40.05629 | 116.60001 | 122 ft | 0 kts | 356° |
| 2026-04-17 09:43 | 40.05633 | 116.60001 | 121 ft | 8 kts | 356° |
| 2026-04-17 09:44 | 40.05814 | 116.59973 | 120 ft | 71 kts | 353° |
| 2026-04-17 09:44 | 40.06928 | 116.59799 | 126 ft | 162 kts | 353° |
| 2026-04-17 09:44 | 40.08051 | 116.59618 | 877 ft | 164 kts | 351° |
| 2026-04-17 09:44 | 40.09184 | 116.59432 | 1728 ft | 165 kts | 352° |
| 2026-04-17 09:45 | 40.10378 | 116.59253 | 2356 ft | 182 kts | 351° |
| 2026-04-17 09:45 | 40.11696 | 116.59033 | 2901 ft | 200 kts | 351° |
| 2026-04-17 09:45 | 40.13158 | 116.58765 | 3375 ft | 226 kts | 350° |
| 2026-04-17 09:45 | 40.14806 | 116.58496 | 3976 ft | 251 kts | 351° |
| 2026-04-17 09:46 | 40.16625 | 116.58217 | 4687 ft | 273 kts | 351° |
| 2026-04-17 09:46 | 40.18541 | 116.57926 | 5726 ft | 279 kts | 350° |
| 2026-04-17 09:46 | 40.19820 | 116.57733 | 6507 ft | 280 kts | 350° |
| 2026-04-17 09:46 | 40.22397 | 116.57631 | 8023 ft | 286 kts | 9° |
| 2026-04-17 09:47 | 40.24194 | 116.58800 | 9153 ft | 297 kts | 38° |
| 2026-04-17 09:47 | 40.25357 | 116.61076 | 10231 ft | 311 kts | 68° |
| 2026-04-17 09:47 | 40.25837 | 116.63955 | 10777 ft | 337 kts | 78° |
| 2026-04-17 09:47 | 40.26146 | 116.67070 | 11490 ft | 351 kts | 81° |
| 2026-04-17 09:48 | 40.26305 | 116.69186 | 12072 ft | 356 kts | 82° |
| 2026-04-17 09:48 | 40.26598 | 116.73546 | 13296 ft | 363 kts | 82° |
| 2026-04-17 09:48 | 40.26828 | 116.76819 | 14140 ft | 368 kts | 82° |
| 2026-04-17 09:48 | 40.26999 | 116.79077 | 14699 ft | 371 kts | 81° |
| 2026-04-17 09:49 | 40.27365 | 116.83546 | 15830 ft | 374 kts | 80° |
| 2026-04-17 09:49 | 40.27562 | 116.85837 | 16401 ft | 376 kts | 79° |
| 2026-04-17 09:49 | 40.27959 | 116.90364 | 17539 ft | 380 kts | 79° |
| 2026-04-17 09:49 | 40.28160 | 116.92645 | 18113 ft | 382 kts | 79° |
| 2026-04-17 09:50 | 40.28229 | 116.96148 | 18821 ft | 392 kts | 94° |
| 2026-04-17 09:50 | 40.26948 | 117.00666 | 19749 ft | 406 kts | 122° |
| 2026-04-17 09:50 | 40.25725 | 117.02533 | 20195 ft | 412 kts | 137° |
| 2026-04-17 09:50 | 40.23301 | 117.04535 | 20845 ft | 416 kts | 159° |
| 2026-04-17 09:51 | 40.20478 | 117.05400 | 21474 ft | 419 kts | 173° |
| 2026-04-17 09:51 | 40.17579 | 117.05926 | 22107 ft | 423 kts | 174° |
| 2026-04-17 09:51 | 40.13686 | 117.06572 | 22484 ft | 427 kts | 174° |
| 2026-04-17 09:51 | 40.11751 | 117.06885 | 22506 ft | 417 kts | 175° |
| 2026-04-17 09:52 | 40.08913 | 117.07342 | 22523 ft | 407 kts | 175° |
| 2026-04-17 09:52 | 40.06114 | 117.07796 | 22523 ft | 404 kts | 174° |
| 2026-04-17 09:52 | 40.03327 | 117.08253 | 22523 ft | 404 kts | 174° |
| 2026-04-17 09:52 | 40.00541 | 117.08713 | 22523 ft | 403 kts | 174° |
| 2026-04-17 09:53 | 39.97759 | 117.09179 | 22522 ft | 403 kts | 174° |
| 2026-04-17 09:53 | 39.94972 | 117.09647 | 22520 ft | 403 kts | 174° |
| 2026-04-17 09:53 | 39.92187 | 117.10112 | 22520 ft | 403 kts | 174° |
| 2026-04-17 09:53 | 39.89404 | 117.10576 | 22520 ft | 404 kts | 174° |
| 2026-04-17 09:54 | 39.86620 | 117.11039 | 22518 ft | 404 kts | 174° |
| 2026-04-17 09:54 | 39.83832 | 117.11504 | 22519 ft | 404 kts | 174° |
| 2026-04-17 09:54 | 39.81084 | 117.11969 | 22521 ft | 404 kts | 174° |
| 2026-04-17 09:54 | 39.78298 | 117.12442 | 22522 ft | 404 kts | 174° |
| 2026-04-17 09:55 | 39.75512 | 117.12911 | 22519 ft | 404 kts | 174° |
| 2026-04-17 09:55 | 39.72727 | 117.13376 | 22521 ft | 404 kts | 174° |
| 2026-04-17 09:55 | 39.69939 | 117.13839 | 22518 ft | 404 kts | 174° |
| 2026-04-17 09:55 | 39.67154 | 117.14298 | 22521 ft | 403 kts | 174° |
| 2026-04-17 09:56 | 39.64371 | 117.14759 | 22522 ft | 403 kts | 174° |
| 2026-04-17 09:56 | 39.61586 | 117.15221 | 22520 ft | 403 kts | 174° |
| 2026-04-17 09:56 | 39.58843 | 117.15675 | 22519 ft | 403 kts | 174° |
| 2026-04-17 09:56 | 39.56061 | 117.16132 | 22518 ft | 403 kts | 174° |
| 2026-04-17 09:57 | 39.53280 | 117.16589 | 22517 ft | 403 kts | 174° |
| 2026-04-17 09:57 | 39.50502 | 117.17050 | 22516 ft | 403 kts | 173° |
| 2026-04-17 09:57 | 39.47766 | 117.17843 | 22511 ft | 404 kts | 163° |
| 2026-04-17 09:57 | 39.45174 | 117.19241 | 22513 ft | 404 kts | 152° |
| 2026-04-17 09:58 | 39.42754 | 117.21078 | 22512 ft | 404 kts | 148° |
| 2026-04-17 09:58 | 39.40347 | 117.22947 | 22512 ft | 403 kts | 148° |
| 2026-04-17 09:58 | 39.37974 | 117.24788 | 22512 ft | 403 kts | 148° |
| 2026-04-17 09:58 | 39.35563 | 117.26654 | 22516 ft | 404 kts | 148° |
| 2026-04-17 09:59 | 39.33158 | 117.28517 | 22517 ft | 404 kts | 148° |
| 2026-04-17 09:59 | 39.30748 | 117.30381 | 22518 ft | 404 kts | 148° |
| 2026-04-17 09:59 | 39.28334 | 117.32241 | 22520 ft | 404 kts | 148° |
| 2026-04-17 09:59 | 39.25924 | 117.34099 | 22522 ft | 404 kts | 148° |
| 2026-04-17 10:00 | 39.23512 | 117.35962 | 22511 ft | 404 kts | 148° |
| 2026-04-17 10:00 | 39.21099 | 117.37822 | 22513 ft | 404 kts | 149° |
| 2026-04-17 10:00 | 39.18685 | 117.39678 | 22518 ft | 404 kts | 149° |
| 2026-04-17 10:00 | 39.16307 | 117.41501 | 22521 ft | 404 kts | 149° |
| 2026-04-17 10:01 | 39.13894 | 117.43354 | 22527 ft | 404 kts | 148° |
| 2026-04-17 10:01 | 39.11592 | 117.45408 | 22528 ft | 402 kts | 138° |
| 2026-04-17 10:01 | 39.09619 | 117.47938 | 22536 ft | 400 kts | 127° |
| 2026-04-17 10:01 | 39.08027 | 117.50855 | 22534 ft | 397 kts | 118° |
| 2026-04-17 10:02 | 39.06602 | 117.53896 | 22530 ft | 397 kts | 118° |
| 2026-04-17 10:02 | 39.05169 | 117.56926 | 22527 ft | 397 kts | 118° |
| 2026-04-17 10:02 | 39.03724 | 117.59956 | 22527 ft | 397 kts | 118° |
| 2026-04-17 10:02 | 39.02277 | 117.62983 | 22526 ft | 397 kts | 118° |
| 2026-04-17 10:03 | 39.00854 | 117.65965 | 22530 ft | 397 kts | 118° |
| 2026-04-17 10:03 | 38.99413 | 117.68992 | 22529 ft | 397 kts | 118° |
| 2026-04-17 10:03 | 38.97975 | 117.72018 | 22527 ft | 397 kts | 118° |
| 2026-04-17 10:03 | 38.96533 | 117.75055 | 22527 ft | 397 kts | 118° |
| 2026-04-17 10:04 | 38.95092 | 117.78085 | 22527 ft | 397 kts | 118° |
| 2026-04-17 10:04 | 38.93649 | 117.81112 | 22528 ft | 397 kts | 118° |
| 2026-04-17 10:04 | 38.92205 | 117.84138 | 22522 ft | 397 kts | 119° |
| 2026-04-17 10:04 | 38.90759 | 117.87157 | 22528 ft | 397 kts | 119° |
| 2026-04-17 10:05 | 38.89315 | 117.90172 | 22534 ft | 396 kts | 119° |
| 2026-04-17 10:05 | 38.87890 | 117.93144 | 22536 ft | 396 kts | 119° |
| 2026-04-17 10:05 | 38.86448 | 117.96154 | 22537 ft | 396 kts | 119° |
| 2026-04-17 10:05 | 38.85003 | 117.99166 | 22537 ft | 396 kts | 119° |
| 2026-04-17 10:06 | 38.83656 | 118.02232 | 22534 ft | 393 kts | 111° |
| 2026-04-17 10:06 | 38.82738 | 118.05508 | 22533 ft | 389 kts | 100° |
| 2026-04-17 10:06 | 38.82191 | 118.08890 | 22537 ft | 387 kts | 97° |
| 2026-04-17 10:06 | 38.81667 | 118.12271 | 22534 ft | 387 kts | 97° |
| 2026-04-17 10:07 | 38.81131 | 118.15655 | 22535 ft | 387 kts | 97° |
| 2026-04-17 10:07 | 38.80591 | 118.19036 | 22534 ft | 387 kts | 97° |
| 2026-04-17 10:07 | 38.80054 | 118.22371 | 22535 ft | 387 kts | 97° |
| 2026-04-17 10:07 | 38.79511 | 118.25753 | 22535 ft | 387 kts | 97° |
| 2026-04-17 10:08 | 38.78968 | 118.29137 | 22534 ft | 387 kts | 97° |
| 2026-04-17 10:08 | 38.78424 | 118.32518 | 22542 ft | 387 kts | 97° |
| 2026-04-17 10:08 | 38.77880 | 118.35897 | 22542 ft | 387 kts | 97° |
| 2026-04-17 10:08 | 38.77337 | 118.39276 | 22546 ft | 387 kts | 97° |
| 2026-04-17 10:09 | 38.76793 | 118.42661 | 22543 ft | 388 kts | 97° |
| 2026-04-17 10:09 | 38.76251 | 118.46043 | 22543 ft | 388 kts | 97° |
| 2026-04-17 10:09 | 38.75706 | 118.49423 | 22550 ft | 388 kts | 97° |
| 2026-04-17 10:09 | 38.75166 | 118.52762 | 22547 ft | 388 kts | 97° |
| 2026-04-17 10:10 | 38.74617 | 118.56143 | 22548 ft | 388 kts | 97° |
| 2026-04-17 10:10 | 38.74067 | 118.59528 | 22547 ft | 388 kts | 97° |
| 2026-04-17 10:10 | 38.73517 | 118.62910 | 22546 ft | 388 kts | 97° |
| 2026-04-17 10:11 | 38.72417 | 118.69672 | 22555 ft | 388 kts | 97° |
| 2026-04-17 10:11 | 38.71865 | 118.73057 | 22552 ft | 388 kts | 98° |
| 2026-04-17 10:11 | 38.71309 | 118.76438 | 22550 ft | 388 kts | 98° |
| 2026-04-17 10:11 | 38.70760 | 118.79773 | 22553 ft | 388 kts | 98° |
| 2026-04-17 10:12 | 38.70200 | 118.83156 | 22554 ft | 388 kts | 98° |
| 2026-04-17 10:12 | 38.69643 | 118.86534 | 22553 ft | 388 kts | 98° |
| 2026-04-17 10:12 | 38.69085 | 118.89916 | 22555 ft | 388 kts | 98° |
| 2026-04-17 10:12 | 38.68528 | 118.93294 | 22552 ft | 388 kts | 98° |
| 2026-04-17 10:13 | 38.67967 | 118.96674 | 22558 ft | 388 kts | 98° |
| 2026-04-17 10:13 | 38.67405 | 119.00053 | 22554 ft | 388 kts | 98° |
| 2026-04-17 10:13 | 38.66841 | 119.03434 | 22557 ft | 388 kts | 98° |
| 2026-04-17 10:13 | 38.66284 | 119.06767 | 22553 ft | 388 kts | 98° |
| 2026-04-17 10:14 | 38.65718 | 119.10148 | 22550 ft | 388 kts | 98° |
| 2026-04-17 10:14 | 38.65154 | 119.13526 | 22554 ft | 389 kts | 98° |
| 2026-04-17 10:14 | 38.64589 | 119.16906 | 22554 ft | 389 kts | 98° |
| 2026-04-17 10:14 | 38.64023 | 119.20285 | 22554 ft | 389 kts | 98° |
| 2026-04-17 10:15 | 38.63456 | 119.23661 | 22551 ft | 389 kts | 98° |
| 2026-04-17 10:15 | 38.62887 | 119.27041 | 22558 ft | 389 kts | 98° |
| 2026-04-17 10:15 | 38.62315 | 119.30417 | 22555 ft | 389 kts | 98° |
| 2026-04-17 10:15 | 38.61745 | 119.33750 | 22554 ft | 389 kts | 98° |
| 2026-04-17 10:16 | 38.61169 | 119.37129 | 22554 ft | 389 kts | 98° |
| 2026-04-17 10:16 | 38.60594 | 119.40513 | 22554 ft | 389 kts | 98° |
| 2026-04-17 10:16 | 38.60021 | 119.43891 | 22554 ft | 389 kts | 98° |
| 2026-04-17 10:16 | 38.59445 | 119.47270 | 22554 ft | 389 kts | 98° |
| 2026-04-17 10:17 | 38.58866 | 119.50652 | 22557 ft | 389 kts | 98° |
| 2026-04-17 10:17 | 38.58336 | 119.54032 | 22563 ft | 387 kts | 93° |
| 2026-04-17 10:17 | 38.58172 | 119.57449 | 22560 ft | 384 kts | 87° |
| 2026-04-17 10:17 | 38.58101 | 119.60858 | 22561 ft | 384 kts | 87° |
| 2026-04-17 10:18 | 38.58023 | 119.64225 | 22560 ft | 384 kts | 87° |
| 2026-04-17 10:18 | 38.57939 | 119.67640 | 22554 ft | 384 kts | 87° |
| 2026-04-17 10:18 | 38.57851 | 119.71053 | 22553 ft | 384 kts | 87° |
| 2026-04-17 10:18 | 38.57763 | 119.74467 | 22564 ft | 384 kts | 87° |
| 2026-04-17 10:19 | 38.57676 | 119.77883 | 22561 ft | 384 kts | 87° |
| 2026-04-17 10:19 | 38.57589 | 119.81297 | 22562 ft | 384 kts | 87° |
| 2026-04-17 10:19 | 38.57502 | 119.84712 | 22567 ft | 385 kts | 88° |
| 2026-04-17 10:19 | 38.57413 | 119.88125 | 22565 ft | 385 kts | 88° |
| 2026-04-17 10:20 | 38.57325 | 119.91495 | 22571 ft | 385 kts | 88° |
| 2026-04-17 10:20 | 38.57234 | 119.94915 | 22574 ft | 385 kts | 89° |
| 2026-04-17 10:20 | 38.56868 | 119.98320 | 22570 ft | 390 kts | 100° |
| 2026-04-17 10:20 | 38.56209 | 120.01682 | 22568 ft | 390 kts | 101° |
| 2026-04-17 10:21 | 38.55542 | 120.05043 | 22567 ft | 390 kts | 101° |
| 2026-04-17 10:21 | 38.54874 | 120.08406 | 22563 ft | 390 kts | 101° |
| 2026-04-17 10:21 | 38.54207 | 120.11767 | 22575 ft | 390 kts | 101° |
| 2026-04-17 10:21 | 38.53537 | 120.15128 | 22570 ft | 391 kts | 101° |
| 2026-04-17 10:22 | 38.52882 | 120.18494 | 22574 ft | 391 kts | 102° |
| 2026-04-17 10:22 | 38.51918 | 120.21701 | 22567 ft | 394 kts | 116° |
| 2026-04-17 10:22 | 38.50386 | 120.24602 | 22571 ft | 396 kts | 131° |
| 2026-04-17 10:22 | 38.48331 | 120.26928 | 22570 ft | 395 kts | 147° |
| 2026-04-17 10:23 | 38.45898 | 120.28506 | 22565 ft | 391 kts | 163° |
| 2026-04-17 10:23 | 38.43283 | 120.29411 | 22565 ft | 389 kts | 169° |
| 2026-04-17 10:23 | 38.40652 | 120.30240 | 22565 ft | 390 kts | 169° |
| 2026-04-17 10:23 | 38.38019 | 120.31079 | 22566 ft | 390 kts | 169° |
| 2026-04-17 10:24 | 38.35387 | 120.31927 | 22570 ft | 390 kts | 169° |
| 2026-04-17 10:24 | 38.32788 | 120.32766 | 22570 ft | 390 kts | 169° |
| 2026-04-17 10:24 | 38.30156 | 120.33616 | 22571 ft | 391 kts | 169° |
| 2026-04-17 10:24 | 38.27522 | 120.34464 | 22570 ft | 391 kts | 169° |
| 2026-04-17 10:25 | 38.24887 | 120.35310 | 22572 ft | 391 kts | 169° |
| 2026-04-17 10:25 | 38.22250 | 120.36160 | 22564 ft | 391 kts | 168° |
| 2026-04-17 10:25 | 38.19617 | 120.37018 | 22565 ft | 391 kts | 168° |
| 2026-04-17 10:25 | 38.16984 | 120.37880 | 22570 ft | 391 kts | 168° |
| 2026-04-17 10:26 | 38.14350 | 120.38740 | 22573 ft | 391 kts | 168° |
| 2026-04-17 10:26 | 38.11713 | 120.39595 | 22574 ft | 391 kts | 168° |
| 2026-04-17 10:26 | 38.09116 | 120.40440 | 22582 ft | 391 kts | 168° |
| 2026-04-17 10:26 | 38.06482 | 120.41297 | 22583 ft | 391 kts | 168° |
| 2026-04-17 10:27 | 38.03849 | 120.42153 | 22585 ft | 391 kts | 168° |
| 2026-04-17 10:27 | 38.01215 | 120.43007 | 22578 ft | 391 kts | 168° |
| 2026-04-17 10:27 | 37.98582 | 120.43861 | 22580 ft | 390 kts | 168° |
| 2026-04-17 10:27 | 37.95951 | 120.44712 | 22581 ft | 390 kts | 169° |
| 2026-04-17 10:28 | 37.93319 | 120.45563 | 22582 ft | 390 kts | 169° |
| 2026-04-17 10:28 | 37.90685 | 120.46413 | 22580 ft | 390 kts | 169° |
| 2026-04-17 10:28 | 37.88088 | 120.47249 | 22581 ft | 390 kts | 169° |
| 2026-04-17 10:28 | 37.85458 | 120.48094 | 22581 ft | 390 kts | 169° |
| 2026-04-17 10:29 | 37.82828 | 120.48940 | 22581 ft | 390 kts | 169° |
| 2026-04-17 10:29 | 37.80194 | 120.49787 | 22582 ft | 390 kts | 169° |
| 2026-04-17 10:29 | 37.77575 | 120.50627 | 22568 ft | 390 kts | 169° |
| 2026-04-17 10:29 | 37.74946 | 120.51470 | 22577 ft | 390 kts | 169° |
| 2026-04-17 10:30 | 37.72318 | 120.52311 | 22582 ft | 390 kts | 169° |
| 2026-04-17 10:30 | 37.69692 | 120.53151 | 22585 ft | 389 kts | 169° |
| 2026-04-17 10:30 | 37.67077 | 120.53739 | 22585 ft | 385 kts | 179° |
| 2026-04-17 10:30 | 37.64418 | 120.53723 | 22589 ft | 380 kts | 191° |
| 2026-04-17 10:31 | 37.61846 | 120.53114 | 22586 ft | 374 kts | 201° |
| 2026-04-17 10:31 | 37.59363 | 120.52167 | 22586 ft | 373 kts | 202° |
| 2026-04-17 10:31 | 37.56875 | 120.51215 | 22577 ft | 373 kts | 202° |
| 2026-04-17 10:31 | 37.54394 | 120.50267 | 22583 ft | 373 kts | 202° |
| 2026-04-17 10:32 | 37.51915 | 120.49323 | 22587 ft | 373 kts | 202° |
| 2026-04-17 10:32 | 37.49465 | 120.48394 | 22591 ft | 372 kts | 202° |
| 2026-04-17 10:32 | 37.46985 | 120.47459 | 22591 ft | 372 kts | 202° |
| 2026-04-17 10:32 | 37.44504 | 120.46523 | 22590 ft | 372 kts | 202° |
| 2026-04-17 10:33 | 37.42028 | 120.45587 | 22594 ft | 372 kts | 202° |
| 2026-04-17 10:33 | 37.39549 | 120.44651 | 22594 ft | 372 kts | 202° |
| 2026-04-17 10:33 | 37.37061 | 120.43710 | 22593 ft | 380 kts | 202° |
| 2026-04-17 10:33 | 37.34482 | 120.42724 | 22595 ft | 392 kts | 202° |
| 2026-04-17 10:34 | 37.31859 | 120.41726 | 22594 ft | 395 kts | 201° |
| 2026-04-17 10:34 | 37.29256 | 120.40744 | 22594 ft | 396 kts | 201° |
| 2026-04-17 10:34 | 37.26613 | 120.39754 | 22592 ft | 397 kts | 201° |
| 2026-04-17 10:34 | 37.23952 | 120.38758 | 22594 ft | 399 kts | 201° |
| 2026-04-17 10:35 | 37.21292 | 120.37761 | 22594 ft | 399 kts | 201° |
| 2026-04-17 10:35 | 37.18636 | 120.36762 | 22590 ft | 398 kts | 201° |
| 2026-04-17 10:35 | 37.15990 | 120.35765 | 22594 ft | 397 kts | 201° |
| 2026-04-17 10:35 | 37.13346 | 120.34766 | 22594 ft | 397 kts | 201° |
| 2026-04-17 10:36 | 37.10705 | 120.33769 | 22597 ft | 397 kts | 201° |
| 2026-04-17 10:36 | 37.08064 | 120.32775 | 22596 ft | 396 kts | 201° |
| 2026-04-17 10:36 | 37.05455 | 120.31796 | 22597 ft | 396 kts | 201° |
| 2026-04-17 10:36 | 37.02813 | 120.30806 | 22600 ft | 396 kts | 201° |
| 2026-04-17 10:37 | 37.00172 | 120.29818 | 22601 ft | 396 kts | 201° |
| 2026-04-17 10:37 | 36.97529 | 120.28831 | 22600 ft | 396 kts | 201° |
| 2026-04-17 10:37 | 36.94885 | 120.27845 | 22594 ft | 396 kts | 201° |
| 2026-04-17 10:37 | 36.92297 | 120.26720 | 22587 ft | 390 kts | 212° |
| 2026-04-17 10:38 | 36.90247 | 120.24684 | 22580 ft | 365 kts | 237° |
| 2026-04-17 10:38 | 36.89178 | 120.21984 | 22459 ft | 336 kts | 262° |
| 2026-04-17 10:38 | 36.89088 | 120.19165 | 22137 ft | 321 kts | 275° |
| 2026-04-17 10:38 | 36.89111 | 120.16412 | 21554 ft | 319 kts | 273° |
| 2026-04-17 10:39 | 36.89102 | 120.13652 | 20677 ft | 317 kts | 273° |
| 2026-04-17 10:39 | 36.89095 | 120.10907 | 19831 ft | 315 kts | 273° |
| 2026-04-17 10:39 | 36.89081 | 120.08177 | 19010 ft | 313 kts | 273° |
| 2026-04-17 10:39 | 36.89070 | 120.05468 | 18255 ft | 311 kts | 273° |
| 2026-04-17 10:40 | 36.89060 | 120.02755 | 17603 ft | 313 kts | 272° |
| 2026-04-17 10:40 | 36.88708 | 120.00070 | 17181 ft | 317 kts | 253° |
| 2026-04-17 10:40 | 36.87593 | 119.97685 | 16786 ft | 323 kts | 232° |
| 2026-04-17 10:40 | 36.85808 | 119.95957 | 16385 ft | 330 kts | 208° |
| 2026-04-17 10:41 | 36.83588 | 119.95214 | 15957 ft | 333 kts | 185° |
| 2026-04-17 10:41 | 36.81342 | 119.95578 | 15274 ft | 331 kts | 159° |
| 2026-04-17 10:41 | 36.79349 | 119.96999 | 14285 ft | 334 kts | 135° |
| 2026-04-17 10:41 | 36.77958 | 119.99309 | 13111 ft | 335 kts | 112° |
| 2026-04-17 10:42 | 36.77025 | 120.02012 | 11683 ft | 345 kts | 109° |
| 2026-04-17 10:42 | 36.75980 | 120.04749 | 10179 ft | 357 kts | 121° |
| 2026-04-17 10:42 | 36.74289 | 120.07049 | 8623 ft | 366 kts | 142° |
| 2026-04-17 10:42 | 36.72041 | 120.08497 | 7265 ft | 363 kts | 161° |
| 2026-04-17 10:43 | 36.69647 | 120.09448 | 5935 ft | 359 kts | 163° |
| 2026-04-17 10:43 | 36.67306 | 120.10364 | 4910 ft | 351 kts | 163° |
| 2026-04-17 10:43 | 36.64965 | 120.11068 | 4210 ft | 342 kts | 177° |
| 2026-04-17 10:43 | 36.62674 | 120.10580 | 3644 ft | 331 kts | 204° |
| 2026-04-17 10:44 | 36.60949 | 120.08892 | 3119 ft | 303 kts | 236° |
| 2026-04-17 10:44 | 36.60173 | 120.06647 | 2997 ft | 266 kts | 256° |
| 2026-04-17 10:44 | 36.59662 | 120.04602 | 2998 ft | 232 kts | 245° |
| 2026-04-17 10:44 | 36.58840 | 120.03020 | 3002 ft | 206 kts | 229° |
| 2026-04-17 10:45 | 36.57829 | 120.01882 | 3001 ft | 190 kts | 215° |
| 2026-04-17 10:45 | 36.56633 | 120.01081 | 3025 ft | 211 kts | 202° |
| 2026-04-17 10:45 | 36.55180 | 120.00632 | 3011 ft | 218 kts | 186° |
| 2026-04-17 10:45 | 36.53657 | 120.00701 | 3012 ft | 221 kts | 170° |
| 2026-04-17 10:46 | 36.52205 | 120.01220 | 2991 ft | 214 kts | 163° |
| 2026-04-17 10:46 | 36.50816 | 120.01770 | 2812 ft | 205 kts | 163° |
| 2026-04-17 10:46 | 36.49489 | 120.02294 | 2573 ft | 195 kts | 164° |
| 2026-04-17 10:46 | 36.48243 | 120.02786 | 2313 ft | 179 kts | 163° |
| 2026-04-17 10:47 | 36.47096 | 120.03238 | 2090 ft | 169 kts | 163° |
| 2026-04-17 10:47 | 36.45990 | 120.03673 | 1877 ft | 164 kts | 163° |
| 2026-04-17 10:47 | 36.44926 | 120.04092 | 1665 ft | 161 kts | 163° |
| 2026-04-17 10:47 | 36.43918 | 120.04489 | 1454 ft | 146 kts | 163° |
| 2026-04-17 10:48 | 36.42972 | 120.04862 | 1263 ft | 141 kts | 163° |
| 2026-04-17 10:48 | 36.42054 | 120.05223 | 1081 ft | 136 kts | 162° |
| 2026-04-17 10:48 | 36.41167 | 120.05572 | 911 ft | 133 kts | 162° |
| 2026-04-17 10:48 | 36.40279 | 120.05920 | 719 ft | 136 kts | 163° |
| 2026-04-17 10:49 | 36.39395 | 120.06259 | 550 ft | 127 kts | 161° |
| 2026-04-17 10:49 | 36.38563 | 120.06603 | 379 ft | 125 kts | 160° |
| 2026-04-17 10:49 | 36.37747 | 120.06911 | 207 ft | 122 kts | 162° |
| 2026-04-17 10:49 | 36.36945 | 120.07233 | 84 ft | 121 kts | 161° |
| 2026-04-17 10:50 | 36.36217 | 120.07515 | 39 ft | 85 kts | 162° |
| 2026-04-17 10:50 | 36.35813 | 120.07674 | 36 ft | 37 kts | 162° |
| 2026-04-17 10:50 | 36.35616 | 120.07782 | 38 ft | 29 kts | 142° |
| 2026-04-17 10:50 | 36.35509 | 120.07909 | 37 ft | 15 kts | 111° |
| 2026-04-17 10:51 | 36.35505 | 120.07968 | 37 ft | 0 kts | 79° |
| 2026-04-17 10:52 | 36.35505 | 120.07970 | 37 ft | 0 kts | 79° |
| 2026-04-17 10:52 | 36.35506 | 120.07974 | 37 ft | 1 kts | 79° |
| 2026-04-17 10:53 | 36.35532 | 120.07996 | 37 ft | 6 kts | 357° |
| 2026-04-17 10:53 | 36.35575 | 120.07984 | 37 ft | 7 kts | 344° |
| 2026-04-17 10:53 | 36.35652 | 120.07955 | 37 ft | 20 kts | 342° |
| 2026-04-17 10:53 | 36.35792 | 120.07900 | 37 ft | 18 kts | 342° |
| 2026-04-17 10:54 | 36.35916 | 120.07851 | 37 ft | 19 kts | 342° |
| 2026-04-17 10:54 | 36.36039 | 120.07803 | 37 ft | 18 kts | 342° |
| 2026-04-17 10:54 | 36.36159 | 120.07756 | 36 ft | 18 kts | 342° |
| 2026-04-17 10:54 | 36.36278 | 120.07709 | 37 ft | 17 kts | 342° |
| 2026-04-17 10:55 | 36.36391 | 120.07665 | 37 ft | 17 kts | 342° |
| 2026-04-17 10:55 | 36.36499 | 120.07623 | 38 ft | 16 kts | 342° |
| 2026-04-17 10:55 | 36.36601 | 120.07584 | 38 ft | 15 kts | 350° |
| 2026-04-17 10:55 | 36.36663 | 120.07661 | 37 ft | 14 kts | 72° |
| 2026-04-17 10:56 | 36.36695 | 120.07787 | 37 ft | 17 kts | 72° |
| 2026-04-17 10:56 | 36.36737 | 120.07948 | 37 ft | 23 kts | 72° |
| 2026-04-17 10:56 | 36.36788 | 120.08147 | 37 ft | 24 kts | 72° |
| 2026-04-17 10:56 | 36.36830 | 120.08310 | 37 ft | 18 kts | 72° |
| 2026-04-17 10:57 | 36.36873 | 120.08476 | 36 ft | 17 kts | 72° |
| 2026-04-17 10:57 | 36.36906 | 120.08604 | 36 ft | 15 kts | 72° |
| 2026-04-17 10:57 | 36.36929 | 120.08706 | 36 ft | 10 kts | 92° |
| 2026-04-17 10:57 | 36.36880 | 120.08757 | 36 ft | 11 kts | 162° |
| 2026-04-17 10:58 | 36.36798 | 120.08789 | 36 ft | 14 kts | 162° |
| 2026-04-17 10:58 | 36.36690 | 120.08832 | 36 ft | 18 kts | 162° |
| 2026-04-17 10:58 | 36.36557 | 120.08885 | 35 ft | 18 kts | 162° |
| 2026-04-17 10:58 | 36.36505 | 120.08908 | 35 ft | 6 kts | 151° |
| 2026-04-17 10:59 | 36.36473 | 120.08942 | 35 ft | 6 kts | 134° |
| 2026-04-17 10:59 | 36.36461 | 120.08957 | 35 ft | 2 kts | 135° |
| 2026-04-17 10:59 | 36.36457 | 120.08963 | 34 ft | 0 kts | 134° |